Date,TemperatureHighF,TemperatureAvgF,TemperatureLowF,DewpointHighF,DewpointAvgF,DewpointLowF,HumidityHigh,HumidityAvg,HumidityLow,PressureMaxIn,PressureMinIn,WindSpeedMaxMPH,WindSpeedAvgMPH,GustSpeedMaxMPH,PrecipitationSumIn
2013-1-1,28.0,22.7,14.2,24.1,13.0,2.8,85,66,54,29.91,29.70,21,-114,21,0.00
2013-1-2,19.6,13.5,4.3,9.5,2.4,-7.4,67,61,56,30.12,29.85,19,0,19,0.00
2013-1-3,12.2,6.3,-0.6,0.3,-5.4,-11.9,58,58,58,30.14,29.94,15,2,15,0.00
2013-1-4,28.8,21.0,7.2,21.0,12.5,-4.5,85,69,58,29.94,29.79,17,2,17,0.00
2013-1-5,30.0,26.9,20.1,22.5,17.1,10.2,79,66,55,30.23,29.79,25,3,25,0.00
2013-1-6,30.9,25.6,19.4,24.3,18.9,10.0,83,76,66,30.20,29.91,8,0,8,0.00
2013-1-7,30.6,25.3,15.1,27.1,17.5,5.7,87,72,59,30.35,29.94,15,2,15,0.00
2013-1-8,34.9,24.3,14.2,24.3,15.6,5.0,80,69,60,30.35,30.23,11,1,11,0.00
2013-1-9,34.5,27.7,19.9,28.2,20.7,12.7,82,75,70,30.38,29.97,13,1,13,0.00
2013-1-10,36.5,33.4,29.1,28.4,23.2,20.8,79,66,57,30.53,30.03,25,5,25,0.00
2013-1-11,33.4,29.7,24.4,28.6,22.6,17.6,86,75,67,30.53,30.20,12,3,12,0.00
2013-1-12,36.7,34.0,32.4,34.5,31.6,28.6,95,91,86,30.20,30.14,4,0,4,0.00
2013-1-13,39.6,36.7,33.8,39.0,35.7,32.5,98,96,95,30.17,30.00,6,-3,6,0.00
2013-1-14,45.0,38.9,34.3,44.2,35.4,27.9,98,88,64,30.26,29.88,15,2,15,0.00
2013-1-15,34.3,31.5,29.1,28.2,24.6,22.3,80,76,69,30.32,30.23,8,1,8,0.00
2013-1-16,30.4,28.9,27.7,26.6,24.6,22.5,89,84,77,30.23,29.82,9,-24,9,0.00
2013-1-17,33.8,27.4,18.7,30.4,21.4,5.7,90,78,57,30.12,29.82,16,2,16,0.00
2013-1-18,19.4,13.9,10.8,7.3,0.8,-1.3,59,55,49,30.35,30.09,18,3,18,0.00
2013-1-19,35.2,26.2,13.5,23.4,15.4,0.3,69,63,55,30.29,29.82,10,1,10,0.00
2013-1-20,37.4,30.5,21.4,29.7,20.1,5.0,77,66,48,29.91,29.52,27,4,27,0.00
2013-1-21,22.3,19.3,15.8,10.8,5.7,1.8,70,55,48,30.03,29.79,13,2,17,0.00
2013-1-22,19.2,15.9,9.0,11.7,5.0,-3.5,73,62,51,30.03,29.76,20,3,20,0.00
2013-1-23,9.3,4.4,-1.8,-3.3,-7.8,-13.7,56,56,56,30.09,30.00,25,4,25,0.00
2013-1-24,7.9,2.4,-7.1,-4.5,-9.7,-18.6,56,56,56,30.20,30.03,28,6,28,0.00
2013-1-25,13.5,9.0,1.2,0.7,-3.5,-10.8,56,56,56,30.26,30.06,17,3,17,0.00
2013-1-26,13.6,10.1,7.3,0.9,-2.5,-5.1,56,56,56,30.20,30.00,22,4,22,0.00
2013-1-27,19.4,12.8,8.2,1.0,-2.4,-5.6,56,50,43,30.44,30.20,20,4,20,0.00
2013-1-28,20.3,15.0,7.7,12.2,2.7,-8.9,75,58,46,30.44,30.03,11,2,11,0.00
2013-1-29,30.6,25.2,18.7,26.4,19.1,12.0,87,77,73,30.17,30.03,9,2,9,0.00
2013-1-30,44.2,35.7,29.8,43.7,34.1,26.4,98,94,87,30.12,29.44,8,-27,9,0.00
2013-1-31,50.0,38.0,25.5,49.5,31.1,10.6,98,78,53,29.52,28.93,26,6,26,0.00